PAKT/KTN METAR and TAF weather

Enter ICAO airport designator
Station Type Date Time Source
PAKT METAR 2020/03/28 08:53 UTC NOAA

PAKT 280853Z AUTO 14006KT 10SM -RA BKN010 BKN015 OVC021 04/03 A2959 RMK SLP021 P0004 60008 T00390033 400830033 58012 TSNO VIA AUTODIAL


Station Type Date Time Source
PAKT Decoded METAR 2020/03/28 08:53 UTC NOAA

KETCHIKAN INTERNATIONAL AIRPORT , AK, United States (PAKT) 55-21N 131-43W 25M
Mar 28, 2020 - 04:53 AM EDT / 2020.03.28 0853 UTC
Wind: from the SE (140 degrees) at 7 MPH (6 KT):0
Visibility: 10 mile(s):0
Sky conditions: overcast
Weather: light rain
Precipitation last hour: 0.04 inches
Temperature: 39.0 F (3.9 C)
Dew Point: 37.9 F (3.3 C)
Relative Humidity: 95%
Pressure (altimeter): 29.59 in. Hg (1002 hPa)
Pressure tendency: 0.04 inches (1.2 hPa) lower than three hours ago
ob: PAKT 280853Z AUTO 14006KT 10SM -RA BKN010 BKN015 OVC021 04/03 A2959 RMK SLP021 P0004 60008 T00390033 400830033 58012 TSNO VIA AUTODIAL
cycle: 9

Station Type Date Time Source
PAKT TAF 2020/03/28 06:33 UTC NOAA

TAF PAKT 280530Z 2806/2906 16006KT P6SM -SHRA BKN025
FM280800 15008KT 5SM -RA BR BKN015 OVC025
FM290100 15006KT P6SM -SHRA OVC025
AMD LTD TO CLD VIS AND WIND 2806/2815

Example: see airport list